Time;durP1;ratioP1;P1;durP2;ratioP2;P2;SDS_P1;SDS_P2;PMS_P1;PMS_P2;Temp;Humidity;BMP_temperature;BMP_pressure;BME280_temperature;BME280_humidity;BME280_pressure;Samples;Min_cycle;Max_cycle;Signal;HPM_P1;HPM_P2
2024/02/03 00:01:02;;;;;;;17.10;9.80;;;;;;;9.01;100.00;102551.31;4743647;30;20059;-65
2024/02/03 00:03:50;;;;;;;13.00;8.95;;;;;;;9.01;100.00;102547.75;4740985;30;20056;-64
2024/02/03 00:06:38;;;;;;;13.32;9.68;;;;;;;9.01;100.00;102536.88;4736206;30;20049;-65
2024/02/03 00:09:27;;;;;;;16.05;10.30;;;;;;;9.02;100.00;102533.09;4762882;30;20064;-65
2024/02/03 00:12:15;;;;;;;15.13;9.23;;;;;;;9.02;100.00;102533.97;4719610;30;20435;-64
2024/02/03 00:15:04;;;;;;;13.55;9.60;;;;;;;9.02;100.00;102525.81;4723139;30;20084;-64
2024/02/03 00:17:52;;;;;;;14.20;9.23;;;;;;;9.04;100.00;102537.28;4762977;30;20139;-64
2024/02/03 00:20:40;;;;;;;14.70;9.65;;;;;;;9.03;100.00;102530.19;4752833;30;20131;-64
2024/02/03 00:23:28;;;;;;;12.90;8.93;;;;;;;9.03;100.00;102532.91;4752290;30;20206;-66
2024/02/03 00:26:16;;;;;;;14.10;9.82;;;;;;;9.05;100.00;102521.81;4751289;30;20139;-65
2024/02/03 00:29:04;;;;;;;13.30;8.93;;;;;;;9.04;100.00;102518.25;4741978;30;20048;-65
2024/02/03 00:31:52;;;;;;;11.73;8.05;;;;;;;9.05;100.00;102521.81;4752636;30;20062;-64
2024/02/03 00:34:44;;;;;;;13.60;8.40;;;;;;;9.05;100.00;102516.38;4752343;30;20579;-66
2024/02/03 00:37:32;;;;;;;12.02;7.80;;;;;;;9.06;100.00;102512.59;4739737;30;20094;-65
2024/02/03 00:40:20;;;;;;;14.02;8.40;;;;;;;9.05;100.00;102516.38;4751446;30;20060;-66
2024/02/03 00:43:08;;;;;;;11.57;8.13;;;;;;;9.05;100.00;102521.81;4752392;30;20059;-66
2024/02/03 00:45:56;;;;;;;11.60;8.35;;;;;;;9.05;100.00;102529.97;4740578;30;20092;-66
2024/02/03 00:48:44;;;;;;;11.40;7.90;;;;;;;9.06;100.00;102528.91;4751986;30;20052;-65
2024/02/03 00:51:33;;;;;;;9.82;7.30;;;;;;;9.07;100.00;102520.56;4752331;30;20102;-65
2024/02/03 00:54:21;;;;;;;12.18;7.55;;;;;;;9.08;100.00;102511.34;4751874;30;20462;-66
2024/02/03 00:57:09;;;;;;;9.70;6.68;;;;;;;9.10;100.00;102502.97;4751535;30;20055;-65
2024/02/03 00:59:57;;;;;;;11.90;7.13;;;;;;;9.11;100.00;102499.19;4751230;30;20067;-66
2024/02/03 01:02:45;;;;;;;8.88;6.13;;;;;;;9.12;100.00;102500.88;4752640;30;20060;-64
2024/02/03 01:05:33;;;;;;;10.07;7.22;;;;;;;9.13;100.00;102500.63;4751679;30;20112;-66
2024/02/03 01:08:21;;;;;;;10.18;6.57;;;;;;;9.15;100.00;102505.88;4750640;30;20059;-66
2024/02/03 01:11:09;;;;;;;12.02;6.65;;;;;;;9.15;100.00;102516.75;4763575;30;20062;-65
2024/02/03 01:13:57;;;;;;;8.85;6.40;;;;;;;9.15;100.00;102517.56;4744117;30;20064;-64
2024/02/03 01:16:45;;;;;;;11.50;7.18;;;;;;;9.15;100.00;102506.69;4735123;30;20084;-65
2024/02/03 01:19:33;;;;;;;12.73;8.07;;;;;;;9.14;100.00;102513.19;4733861;30;20055;-65
2024/02/03 01:22:22;;;;;;;12.30;7.50;;;;;;;9.16;100.00;102515.69;4734753;30;20063;-64
2024/02/03 01:25:10;;;;;;;10.35;7.95;;;;;;;9.15;100.00;102511.31;4751067;30;20044;-65
2024/02/03 01:27:58;;;;;;;11.38;7.78;;;;;;;9.15;100.00;102505.88;4741728;30;20127;-66
2024/02/03 01:30:46;;;;;;;11.40;8.07;;;;;;;9.14;100.00;102506.94;4738699;30;20052;-65
2024/02/03 01:33:35;;;;;;;11.93;8.38;;;;;;;9.13;100.00;102508.78;4750346;30;20060;-65
2024/02/03 01:36:23;;;;;;;10.38;7.30;;;;;;;9.15;100.00;102501.25;4750616;30;20440;-65
2024/02/03 01:39:11;;;;;;;12.77;8.45;;;;;;;9.15;100.00;102505.88;4750873;30;20414;-65
2024/02/03 01:41:59;;;;;;;11.77;8.27;;;;;;;9.14;100.00;102498.78;4737997;30;20056;-65
2024/02/03 01:44:47;;;;;;;11.90;7.88;;;;;;;9.13;100.00;102494.38;4748287;30;20076;-66
2024/02/03 01:47:35;;;;;;;13.32;8.45;;;;;;;9.13;100.00;102480.78;4735794;30;20088;-64
2024/02/03 01:50:25;;;;;;;11.38;7.85;;;;;;;9.14;100.00;102482.47;4762952;30;20041;-66
2024/02/03 01:53:14;;;;;;;10.82;8.00;;;;;;;9.15;100.00;102478.69;4738310;30;20495;-66
2024/02/03 01:56:02;;;;;;;15.55;8.82;;;;;;;9.15;100.00;102481.41;4731318;30;20083;-65
2024/02/03 01:58:50;;;;;;;10.15;7.63;;;;;;;9.15;100.00;102479.50;4746108;30;20451;-66
2024/02/03 02:01:38;;;;;;;11.82;7.13;;;;;;;9.18;100.00;102483.66;4751457;30;20536;-66
2024/02/03 02:04:27;;;;;;;14.13;8.90;;;;;;;9.17;100.00;102484.72;4742742;30;20053;-65
2024/02/03 02:07:15;;;;;;;10.88;7.47;;;;;;;9.17;100.00;102490.19;4744659;30;20131;-65
2024/02/03 02:10:03;;;;;;;11.48;8.05;;;;;;;9.18;100.00;102494.53;4750719;30;20112;-66
2024/02/03 02:12:52;;;;;;;11.50;7.82;;;;;;;9.17;100.00;102495.63;4745296;30;20539;-65
2024/02/03 02:15:40;;;;;;;11.63;8.25;;;;;;;9.16;100.00;102493.94;4754603;30;20569;-65
2024/02/03 02:18:28;;;;;;;13.32;8.75;;;;;;;9.16;100.00;102492.06;4754958;30;20067;-64
2024/02/03 02:21:16;;;;;;;10.75;7.80;;;;;;;9.18;100.00;102486.38;4742573;30;20060;-65
2024/02/03 02:24:05;;;;;;;12.88;8.40;;;;;;;9.18;100.00;102483.66;4754892;30;20414;-65
2024/02/03 02:26:53;;;;;;;11.77;7.85;;;;;;;9.17;100.00;102480.13;4736443;30;20060;-65
2024/02/03 02:29:41;;;;;;;12.63;7.28;;;;;;;9.21;100.00;102483.22;4744762;30;20194;-65
2024/02/03 02:32:29;;;;;;;13.40;8.25;;;;;;;9.20;100.00;102476.13;4762984;30;20162;-64
2024/02/03 02:35:17;;;;;;;11.82;8.15;;;;;;;9.19;100.00;102482.63;4771744;30;20561;-66
2024/02/03 02:38:05;;;;;;;10.23;7.50;;;;;;;9.21;100.00;102476.97;4772076;30;20109;-67
2024/02/03 02:40:53;;;;;;;12.00;7.60;;;;;;;9.21;100.00;102477.78;4765779;30;20082;-65
2024/02/03 02:43:41;;;;;;;10.90;6.95;;;;;;;9.21;100.00;102477.78;4741888;30;20141;-64
2024/02/03 02:46:29;;;;;;;11.30;7.70;;;;;;;9.21;100.00;102477.78;4753742;30;20074;-64
2024/02/03 02:49:17;;;;;;;11.98;7.90;;;;;;;9.22;100.00;102476.75;4753274;30;20075;-66
2024/02/03 02:52:05;;;;;;;13.43;7.45;;;;;;;9.24;100.00;102477.38;4755864;30;20048;-65
2024/02/03 02:54:54;;;;;;;11.48;7.13;;;;;;;9.25;100.00;102475.47;4749191;30;20116;-65
2024/02/03 02:57:42;;;;;;;12.80;7.55;;;;;;;9.25;100.00;102462.72;4740028;30;20040;-64
2024/02/03 03:00:31;;;;;;;13.48;6.93;;;;;;;9.26;100.00;102458.94;4767767;30;20074;-66
2024/02/03 03:03:19;;;;;;;9.13;6.47;;;;;;;9.27;100.00;102465.22;4743877;30;20048;-65
2024/02/03 03:06:07;;;;;;;9.88;6.38;;;;;;;9.26;100.00;102452.66;4761307;30;20056;-60
2024/02/03 03:08:55;;;;;;;10.18;7.25;;;;;;;9.26;100.00;102453.50;4773592;30;20525;-61
2024/02/03 03:11:44;;;;;;;10.15;6.60;;;;;;;9.26;100.00;102453.50;4766270;30;20082;-65
2024/02/03 03:14:32;;;;;;;9.32;6.78;;;;;;;9.24;100.00;102462.94;4759782;30;20090;-63
2024/02/03 03:17:20;;;;;;;10.93;6.45;;;;;;;9.23;100.00;102467.53;4770123;30;20066;-59
2024/02/03 03:20:08;;;;;;;12.73;7.05;;;;;;;9.22;100.00;102468.59;4768723;30;20106;-65
2024/02/03 03:22:56;;;;;;;13.93;6.75;;;;;;;9.23;100.00;102463.97;4757613;30;20052;-66
2024/02/03 03:25:44;;;;;;;12.68;7.25;;;;;;;9.22;100.00;102457.72;4753233;30;20531;-64
2024/02/03 03:28:32;;;;;;;11.50;6.45;;;;;;;9.21;100.00;102461.47;4752604;30;20134;-65
2024/02/03 03:31:20;;;;;;;10.85;6.63;;;;;;;9.21;100.00;102458.75;4741082;30;20129;-65
2024/02/03 03:34:08;;;;;;;12.13;6.30;;;;;;;9.22;100.00;102454.16;4753001;30;20113;-65
2024/02/03 03:36:56;;;;;;;10.95;6.32;;;;;;;9.22;100.00;102451.44;4740537;30;20056;-65
2024/02/03 03:39:45;;;;;;;10.05;6.07;;;;;;;9.22;100.00;102452.28;4727736;30;20170;-64
2024/02/03 03:42:33;;;;;;;11.40;6.03;;;;;;;9.21;100.00;102438.88;4753474;30;20056;-64
2024/02/03 03:45:21;;;;;;;13.15;6.10;;;;;;;9.20;100.00;102438.06;4751906;30;20100;-65
2024/02/03 03:48:09;;;;;;;10.13;6.22;;;;;;;9.20;100.00;102438.06;4764987;30;20067;-65
2024/02/03 03:50:58;;;;;;;9.93;5.95;;;;;;;9.19;100.00;102436.41;4748616;30;20053;-64
2024/02/03 03:53:46;;;;;;;9.88;6.00;;;;;;;9.21;100.00;102445.16;4747112;30;20063;-64
2024/02/03 03:56:34;;;;;;;11.57;6.35;;;;;;;9.20;100.00;102432.63;4735573;30;20139;-67
2024/02/03 03:59:22;;;;;;;12.38;7.13;;;;;;;9.20;100.00;102438.06;4751716;30;20132;-66
2024/02/03 04:02:14;;;;;;;13.50;7.68;;;;;;;9.20;100.00;102445.38;4752154;30;20178;-65
2024/02/03 04:05:02;;;;;;;12.90;8.32;;;;;;;9.19;100.00;102444.56;4764313;29;20056;-66
2024/02/03 04:07:50;;;;;;;13.20;8.75;;;;;;;9.17;100.00;102442.06;4753534;30;20059;-64
2024/02/03 04:10:38;;;;;;;10.32;7.78;;;;;;;9.17;100.00;102444.78;4751998;30;20054;-65
2024/02/03 04:13:26;;;;;;;13.00;8.48;;;;;;;9.16;100.00;102448.56;4739162;30;20063;-65
2024/02/03 04:16:14;;;;;;;12.27;7.60;;;;;;;9.17;100.00;102449.38;4753161;30;20058;-65
2024/02/03 04:19:02;;;;;;;13.25;8.50;;;;;;;9.17;100.00;102450.22;4740484;30;20075;-66
2024/02/03 04:21:50;;;;;;;14.65;8.38;;;;;;;9.18;100.00;102451.88;4750511;30;20060;-64
2024/02/03 04:24:38;;;;;;;11.05;7.88;;;;;;;9.19;100.00;102458.16;4741725;30;20428;-65
2024/02/03 04:27:26;;;;;;;11.63;8.50;;;;;;;9.17;100.00;102449.38;4752087;30;20292;-64
2024/02/03 04:30:16;;;;;;;16.58;8.50;;;;;;;9.17;100.00;102446.66;4751331;30;20052;-64
2024/02/03 04:33:11;;;;;;;13.65;8.50;;;;;;;9.17;100.00;102449.38;4733815;30;20514;-67
2024/02/03 04:36:04;;;;;;;16.25;8.60;;;;;;;9.17;100.00;102443.94;4750296;30;20052;-65
2024/02/03 04:38:52;;;;;;;14.68;7.68;;;;;;;9.16;100.00;102439.53;4752332;30;20187;-65
2024/02/03 04:41:40;;;;;;;15.57;7.68;;;;;;;9.16;100.00;102437.69;4751566;30;20501;-65
2024/02/03 04:44:28;;;;;;;11.88;7.82;;;;;;;9.16;100.00;102447.69;4763536;30;20095;-65
2024/02/03 04:47:16;;;;;;;11.85;7.82;;;;;;;9.16;100.00;102447.69;4752497;30;20052;-65
2024/02/03 04:50:04;;;;;;;13.65;7.57;;;;;;;9.16;100.00;102431.38;4751369;30;20052;-65
2024/02/03 04:52:53;;;;;;;13.40;8.38;;;;;;;9.15;100.00;102430.56;4751393;30;20044;-65
2024/02/03 04:55:41;;;;;;;15.25;7.28;;;;;;;9.17;100.00;102435.78;4752114;30;20052;-66
2024/02/03 04:58:30;;;;;;;11.05;7.47;;;;;;;9.19;100.00;102436.41;4752029;30;20059;-65
2024/02/03 05:01:18;;;;;;;12.73;8.25;;;;;;;9.17;100.00;102438.50;4751731;30;20495;-65
2024/02/03 05:04:06;;;;;;;13.75;7.45;;;;;;;9.17;100.00;102435.78;4750597;30;20106;-65
2024/02/03 05:06:55;;;;;;;15.05;7.50;;;;;;;9.16;100.00;102437.69;4751409;30;20051;-66
2024/02/03 05:09:43;;;;;;;12.52;7.72;;;;;;;9.15;100.00;102430.56;4751063;30;20146;-66
2024/02/03 05:12:32;;;;;;;11.52;6.97;;;;;;;9.15;100.00;102427.00;4737784;30;20453;-64
2024/02/03 05:15:20;;;;;;;10.25;6.25;;;;;;;9.17;100.00;102423.00;4751569;30;20048;-65
2024/02/03 05:18:09;;;;;;;10.75;6.65;;;;;;;9.17;100.00;102424.91;4739139;30;20052;-65
2024/02/03 05:20:57;;;;;;;11.98;6.93;;;;;;;9.17;100.00;102433.91;4751486;30;20059;-66
2024/02/03 05:23:45;;;;;;;9.75;6.47;;;;;;;9.17;100.00;102419.47;4745627;30;20180;-66
2024/02/03 05:26:33;;;;;;;13.32;6.90;;;;;;;9.20;100.00;102415.47;4751475;30;20421;-66
2024/02/03 05:29:21;;;;;;;14.02;7.20;;;;;;;9.16;100.00;102420.50;4751920;30;20109;-66
2024/02/03 05:32:09;;;;;;;13.07;7.50;;;;;;;9.13;100.00;102412.78;4752242;30;20052;-66
2024/02/03 05:34:57;;;;;;;13.02;7.28;;;;;;;9.10;100.00;102405.91;4750121;30;20044;-64
2024/02/03 05:37:45;;;;;;;14.95;7.90;;;;;;;9.08;100.00;102391.69;4750963;30;20444;-66
2024/02/03 05:40:33;;;;;;;11.57;6.75;;;;;;;9.10;100.00;102395.03;4751444;30;20060;-67
2024/02/03 05:43:21;;;;;;;13.45;6.30;;;;;;;9.13;100.00;102394.59;4751966;30;20048;-66
2024/02/03 05:46:09;;;;;;;9.30;5.40;;;;;;;9.14;100.00;102395.44;4733385;30;20239;-65
2024/02/03 05:48:57;;;;;;;10.90;6.00;;;;;;;9.15;100.00;102405.25;4744401;30;20154;-66
2024/02/03 05:51:45;;;;;;;10.70;6.05;;;;;;;9.14;100.00;102401.72;4746872;30;20063;-67
2024/02/03 05:54:33;;;;;;;9.88;5.60;;;;;;;9.15;100.00;102407.97;4767577;30;20064;-66
2024/02/03 05:57:21;;;;;;;12.05;6.00;;;;;;;9.16;100.00;102396.03;4730430;30;20143;-65
2024/02/03 06:00:10;;;;;;;9.23;5.85;;;;;;;9.17;100.00;102398.53;4771419;30;20052;-67
2024/02/03 06:02:58;;;;;;;9.90;5.68;;;;;;;9.18;100.00;102402.09;4761642;30;20045;-66
2024/02/03 06:05:47;;;;;;;13.27;5.40;;;;;;;9.21;100.00;102393.47;4740250;30;20049;-65
2024/02/03 06:08:55;;;;;;;11.65;5.60;;;;;;;9.23;100.00;102393.28;4740120;30;20048;-64
2024/02/03 06:11:43;;;;;;;10.30;5.50;;;;;;;9.21;100.00;102390.75;4755002;30;20141;-64
2024/02/03 06:14:32;;;;;;;11.45;5.47;;;;;;;9.21;100.00;102390.75;4755164;30;20150;-66
2024/02/03 06:17:20;;;;;;;10.80;5.70;;;;;;;9.21;100.00;102387.22;4755406;30;20114;-66
2024/02/03 06:20:08;;;;;;;12.00;5.10;;;;;;;9.20;100.00;102394.53;4755466;30;20052;-66
2024/02/03 06:22:58;;;;;;;12.02;5.47;;;;;;;9.21;100.00;102407.06;4751405;30;20181;-66
2024/02/03 06:25:46;;;;;;;10.13;5.25;;;;;;;9.21;100.00;102407.06;4088945;30;10000732;-65
2024/02/03 06:28:34;;;;;;;9.63;5.25;;;;;;;9.23;100.00;102417.75;4741032;30;20055;-66
2024/02/03 06:31:22;;;;;;;12.50;5.30;;;;;;;9.22;100.00;102397.06;4751073;30;20434;-66
2024/02/03 06:34:09;;;;;;;13.43;5.88;;;;;;;9.22;100.00;102397.88;4737729;30;20064;-65
2024/02/03 06:36:58;;;;;;;11.55;5.32;;;;;;;9.22;100.00;102406.03;4749051;30;20061;-67
2024/02/03 06:39:46;;;;;;;14.35;5.80;;;;;;;9.23;100.00;102413.13;4750312;30;20075;-66
2024/02/03 06:42:34;;;;;;;11.07;5.30;;;;;;;9.22;100.00;102408.75;4750498;30;20087;-64
2024/02/03 06:45:22;;;;;;;13.00;5.63;;;;;;;9.22;100.00;102414.19;4737820;30;20152;-66
2024/02/03 06:48:10;;;;;;;14.80;5.78;;;;;;;9.24;100.00;102412.09;4738921;30;20060;-66
2024/02/03 06:50:58;;;;;;;10.85;5.07;;;;;;;9.24;100.00;102412.09;4749022;30;20048;-66
2024/02/03 06:53:46;;;;;;;12.93;5.53;;;;;;;9.25;100.00;102413.75;4750289;30;20174;-66
2024/02/03 06:56:34;;;;;;;11.25;5.18;;;;;;;9.25;100.00;102410.22;4750651;30;20052;-65
2024/02/03 06:59:23;;;;;;;10.38;5.05;;;;;;;9.25;100.00;102419.19;4736499;30;20537;-68
2024/02/03 07:02:11;;;;;;;9.27;4.75;;;;;;;9.27;100.00;102422.53;4742128;30;20172;-66
2024/02/03 07:04:59;;;;;;;13.95;5.38;;;;;;;9.28;100.00;102418.75;4750351;30;20044;-68
2024/02/03 07:07:47;;;;;;;14.18;5.60;;;;;;;9.28;100.00;102418.75;4742542;30;20143;-67
2024/02/03 07:10:35;;;;;;;14.07;5.78;;;;;;;9.26;100.00;102414.56;4738365;30;20109;-66
2024/02/03 07:13:25;;;;;;;11.20;5.07;;;;;;;9.24;100.00;102420.25;4751504;30;20213;-66
2024/02/03 07:16:14;;;;;;;14.13;5.50;;;;;;;9.24;100.00;102424.88;4753371;30;20514;-65
2024/02/03 07:19:04;;;;;;;10.52;4.95;;;;;;;9.25;100.00;102426.53;4753869;30;20048;-66
2024/02/03 07:21:52;;;;;;;11.38;5.50;;;;;;;9.26;100.00;102429.03;4780089;30;20044;-62
2024/02/03 07:24:41;;;;;;;9.90;4.63;;;;;;;9.27;100.00;102427.16;4771415;30;20063;-64
2024/02/03 07:27:29;;;;;;;11.68;4.72;;;;;;;9.28;100.00;102426.91;4762023;30;20066;-66
2024/02/03 07:30:17;;;;;;;12.95;5.30;;;;;;;9.31;100.00;102429.22;4745203;30;20048;-64
2024/02/03 07:33:07;;;;;;;10.65;4.60;;;;;;;9.33;100.00;102423.53;4759114;30;20108;-64
2024/02/03 07:35:56;;;;;;;11.18;4.30;;;;;;;9.33;100.00;102424.38;4768658;30;20055;-63
2024/02/03 07:38:44;;;;;;;13.05;5.00;;;;;;;9.32;100.00;102417.25;4755770;30;20202;-67
2024/02/03 07:41:35;;;;;;;11.85;4.70;;;;;;;9.34;100.00;102425.22;4752562;30;20533;-65
2024/02/03 07:44:23;;;;;;;9.93;4.03;;;;;;;9.32;100.00;102425.41;4744584;30;20052;-64
2024/02/03 07:47:11;;;;;;;10.25;4.03;;;;;;;9.34;100.00;102427.94;4751255;30;20083;-66
2024/02/03 07:49:59;;;;;;;13.27;4.70;;;;;;;9.32;100.00;102425.41;4764333;30;20190;-66
2024/02/03 07:52:48;;;;;;;9.88;4.00;;;;;;;9.32;100.00;102440.91;4751670;30;20056;-66
2024/02/03 07:55:36;;;;;;;7.00;4.03;;;;;;;9.33;100.00;102443.44;4750065;30;20060;-66
2024/02/03 07:58:24;;;;;;;11.55;4.40;;;;;;;9.33;100.00;102443.44;4751191;30;20135;-64
2024/02/03 08:01:12;;;;;;;12.35;4.57;;;;;;;9.29;100.00;102442.19;4737698;30;20366;-65
2024/02/03 08:04:00;;;;;;;15.13;5.45;;;;;;;9.26;100.00;102456.22;4752516;30;20056;-66
2024/02/03 08:06:49;;;;;;;12.10;5.20;;;;;;;9.24;100.00;102458.34;4743778;30;20049;-66
2024/02/03 08:09:37;;;;;;;14.10;4.70;;;;;;;9.23;100.00;102464.81;4764033;30;20048;-65
2024/02/03 08:12:25;;;;;;;10.77;4.45;;;;;;;9.23;100.00;102459.38;4739307;30;20099;-65
2024/02/03 08:15:13;;;;;;;10.68;4.00;;;;;;;9.24;100.00;102463.78;4752232;30;20395;-66
2024/02/03 08:18:01;;;;;;;8.50;3.90;;;;;;;9.25;100.00;102456.44;4752873;30;20052;-64
2024/02/03 08:20:50;;;;;;;11.70;4.85;;;;;;;9.27;100.00;102460.59;4738235;30;20052;-66
2024/02/03 08:23:38;;;;;;;12.20;4.15;;;;;;;9.27;100.00;102455.16;4737160;30;20529;-66
2024/02/03 08:26:26;;;;;;;9.85;4.10;;;;;;;9.30;100.00;102459.34;4750102;30;20048;-66
2024/02/03 08:29:14;;;;;;;11.27;4.50;;;;;;;9.34;100.00;102455.97;4751973;30;20147;-67
2024/02/03 08:32:02;;;;;;;10.40;3.60;;;;;;;9.37;100.00;102458.22;4752243;30;20110;-66
2024/02/03 08:34:51;;;;;;;11.80;4.47;;;;;;;9.38;100.00;102462.63;4751146;30;20553;-66
2024/02/03 08:37:42;;;;;;;11.07;4.47;;;;;;;9.36;100.00;102459.31;4734877;30;20059;-67
2024/02/03 08:40:30;;;;;;;9.48;3.97;;;;;;;9.34;100.00;102472.28;4735399;30;20415;-66
2024/02/03 08:43:18;;;;;;;10.88;3.92;;;;;;;9.31;100.00;102472.72;4746733;30;20057;-66
2024/02/03 08:46:07;;;;;;;11.68;3.80;;;;;;;9.32;100.00;102479.00;4752532;30;20049;-66
2024/02/03 08:48:55;;;;;;;15.68;4.43;;;;;;;9.29;100.00;102474.81;4735289;30;20061;-65
2024/02/03 08:51:43;;;;;;;10.48;4.18;;;;;;;9.32;100.00;102479.00;4758402;30;20056;-65
2024/02/03 08:54:31;;;;;;;7.43;3.47;;;;;;;9.32;100.00;102474.38;4764541;30;20121;-64
2024/02/03 08:57:19;;;;;;;11.45;4.35;;;;;;;9.32;100.00;102479.00;4756987;30;20059;-66
2024/02/03 09:00:09;;;;;;;9.55;3.58;;;;;;;9.32;100.00;102479.00;4766509;30;20048;-65
2024/02/03 09:02:57;;;;;;;10.82;4.10;;;;;;;9.32;100.00;102482.53;4767258;30;20159;-65
2024/02/03 09:05:45;;;;;;;9.88;3.50;;;;;;;9.33;100.00;102481.50;4752385;30;20048;-65
2024/02/03 09:08:33;;;;;;;9.40;3.92;;;;;;;9.33;100.00;102475.22;4764653;30;20495;-65
2024/02/03 09:11:21;;;;;;;8.32;3.70;;;;;;;9.33;100.00;102476.06;4751060;30;20114;-65
2024/02/03 09:14:09;;;;;;;9.30;3.17;;;;;;;9.36;100.00;102478.34;4754163;30;20060;-64
2024/02/03 09:16:57;;;;;;;10.10;3.47;;;;;;;9.33;100.00;102470.63;4763580;30;20052;-65
2024/02/03 09:19:45;;;;;;;9.85;3.45;;;;;;;9.34;100.00;102475.00;4751911;30;20120;-65
2024/02/03 09:22:34;;;;;;;6.00;3.00;;;;;;;9.37;100.00;102466.41;4751464;30;20052;-65
2024/02/03 09:25:22;;;;;;;4.97;2.58;;;;;;;9.38;100.00;102459.09;4752096;30;20181;-66
2024/02/03 09:28:09;;;;;;;6.22;2.92;;;;;;;9.37;100.00;102454.69;4752885;30;20518;-65
2024/02/03 09:30:58;;;;;;;8.02;3.42;;;;;;;9.38;100.00;102464.53;4749696;30;20056;-65
2024/02/03 09:33:47;;;;;;;9.95;3.65;;;;;;;9.38;100.00;102462.63;4749080;30;20141;-64
2024/02/03 09:36:42;;;;;;;9.45;3.72;;;;;;;9.37;100.00;102466.41;4735907;30;20055;-64
2024/02/03 09:39:33;;;;;;;9.77;4.18;;;;;;;9.38;100.00;102457.19;4739662;30;20063;-65
2024/02/03 09:42:25;;;;;;;8.10;3.50;;;;;;;9.38;100.00;102462.63;4737901;30;20087;-65
2024/02/03 09:45:14;;;;;;;6.80;3.22;;;;;;;9.37;100.00;102460.94;4734194;30;20497;-65
2024/02/03 09:48:02;;;;;;;8.93;3.40;;;;;;;9.39;100.00;102463.47;4750576;30;20075;-64
2024/02/03 09:50:50;;;;;;;6.65;3.05;;;;;;;9.38;100.00;102468.06;4750667;30;20059;-65
2024/02/03 09:53:39;;;;;;;12.38;4.00;;;;;;;9.42;100.00;102473.06;4750778;30;20131;-64
2024/02/03 09:56:27;;;;;;;8.02;3.63;;;;;;;9.42;100.00;102470.34;4745563;30;20136;-65
2024/02/03 09:59:16;;;;;;;7.22;3.20;;;;;;;9.42;100.00;102475.78;4762411;30;20534;-65
2024/02/03 10:02:04;;;;;;;7.88;3.17;;;;;;;9.44;100.00;102470.97;4736701;30;20064;-65
2024/02/03 10:04:53;;;;;;;9.18;3.65;;;;;;;9.44;100.00;102473.69;4750056;30;20062;-65
2024/02/03 10:07:41;;;;;;;7.43;3.40;;;;;;;9.44;100.00;102465.53;4722322;30;20049;-64
2024/02/03 10:10:30;;;;;;;6.65;3.15;;;;;;;9.46;100.00;102474.31;4750815;30;20131;-64
2024/02/03 10:13:22;;;;;;;11.63;3.60;;;;;;;9.45;100.00;102469.91;4737526;30;20067;-65
2024/02/03 10:16:10;;;;;;;7.63;3.00;;;;;;;9.43;100.00;102461.13;4749942;30;20059;-63
2024/02/03 10:18:58;;;;;;;10.02;3.42;;;;;;;9.44;100.00;102470.97;4749523;30;20056;-65
2024/02/03 10:21:46;;;;;;;7.38;3.17;;;;;;;9.48;100.00;102472.22;4749424;30;20056;-64
2024/02/03 10:24:34;;;;;;;9.15;3.30;;;;;;;9.46;100.00;102479.75;4762240;30;20056;-65
2024/02/03 10:27:26;;;;;;;8.55;3.50;;;;;;;9.46;100.00;102477.03;4748637;30;20056;-66
2024/02/03 10:30:19;;;;;;;8.05;3.58;;;;;;;9.45;100.00;102475.34;4747894;30;20189;-66
2024/02/03 10:33:08;;;;;;;6.95;3.15;;;;;;;9.45;100.00;102478.88;4751168;30;20143;-65
2024/02/03 10:35:56;;;;;;;8.43;3.35;;;;;;;9.45;100.00;102478.88;4751134;30;20525;-65
2024/02/03 10:38:44;;;;;;;30.73;8.10;;;;;;;9.50;100.00;102479.09;4766795;30;20052;-64
2024/02/03 10:41:33;;;;;;;8.75;3.00;;;;;;;9.53;100.00;102475.94;4740251;30;20060;-65
2024/02/03 10:44:24;;;;;;;6.97;2.90;;;;;;;9.55;100.00;102462.94;4753408;30;20442;-65
2024/02/03 10:47:12;;;;;;;8.18;3.03;;;;;;;9.53;100.00;102469.66;4754343;30;20052;-65
2024/02/03 10:50:00;;;;;;;6.80;2.88;;;;;;;9.52;100.00;102462.53;4750583;30;20542;-65
2024/02/03 10:52:50;;;;;;;7.72;3.20;;;;;;;9.52;100.00;102463.34;4742758;30;20083;-65
2024/02/03 10:55:43;;;;;;;6.47;3.03;;;;;;;9.53;100.00;102465.03;4739605;30;20052;-64
2024/02/03 10:58:32;;;;;;;8.80;3.78;;;;;;;9.54;100.00;102471.31;4739648;30;20052;-65
2024/02/03 11:01:23;;;;;;;7.05;3.03;;;;;;;9.57;100.00;102465.41;4740522;30;20492;-65
2024/02/03 11:04:14;;;;;;;12.10;3.50;;;;;;;9.62;100.00;102468.34;4759262;30;20052;-66
2024/02/03 11:07:02;;;;;;;9.10;2.90;;;;;;;9.59;100.00;102463.31;4753653;30;20115;-66
2024/02/03 11:09:55;;;;;;;7.72;3.10;;;;;;;9.59;100.00;102474.19;4765474;30;20064;-66
2024/02/03 11:12:43;;;;;;;9.77;3.10;;;;;;;9.59;100.00;102469.59;4748784;30;20058;-66
2024/02/03 11:15:31;;;;;;;7.28;2.75;;;;;;;9.59;100.00;102463.31;4753354;30;20491;-65
2024/02/03 11:18:19;;;;;;;6.78;3.08;;;;;;;9.60;100.00;102454.09;4739302;30;20130;-66
2024/02/03 11:21:08;;;;;;;8.57;3.20;;;;;;;9.58;100.00;102457.03;4752278;30;20051;-65
2024/02/03 11:23:56;;;;;;;8.70;3.60;;;;;;;9.59;100.00;102452.44;4753708;30;20052;-65
2024/02/03 11:26:57;;;;;;;7.30;3.17;;;;;;;9.60;100.00;102454.94;4752997;30;20044;-65
2024/02/03 11:29:45;;;;;;;11.25;3.50;;;;;;;9.63;100.00;102450.94;4754758;30;20113;-64
2024/02/03 11:32:33;;;;;;;9.80;3.78;;;;;;;9.64;100.00;102457.22;4742526;30;20105;-64
2024/02/03 11:35:21;;;;;;;9.02;3.47;;;;;;;9.67;100.00;102454.91;4762799;30;20059;-66
2024/02/03 11:38:12;;;;;;;10.55;3.50;;;;;;;9.67;100.00;102451.31;4758141;30;20087;-64
2024/02/03 11:41:01;;;;;;;9.73;3.30;;;;;;;9.66;100.00;102450.50;4754842;30;20056;-63
2024/02/03 11:43:51;;;;;;;8.05;3.45;;;;;;;9.66;100.00;102445.03;4753355;30;20061;-63
2024/02/03 11:46:39;;;;;;;10.02;3.38;;;;;;;9.65;100.00;102451.56;4770715;30;20060;-60
2024/02/03 11:49:27;;;;;;;7.95;3.13;;;;;;;9.66;100.00;102447.75;4766359;30;20111;-65
2024/02/03 11:52:16;;;;;;;9.20;3.67;;;;;;;9.65;100.00;102442.56;4745142;30;20059;-66
2024/02/03 11:55:04;;;;;;;7.82;3.10;;;;;;;9.65;100.00;102432.50;4753105;30;20056;-65
2024/02/03 11:57:52;;;;;;;8.23;4.25;;;;;;;9.68;100.00;102433.94;4761946;30;20058;-66
2024/02/03 12:00:40;;;;;;;7.47;3.90;;;;;;;9.70;100.00;102429.13;4756518;30;20451;-65
2024/02/03 12:03:29;;;;;;;9.75;3.83;;;;;;;9.68;100.00;102423.88;4751346;30;20055;-66
2024/02/03 12:06:17;;;;;;;12.02;4.25;;;;;;;9.68;100.00;102417.63;4751702;30;20044;-66
2024/02/03 12:09:05;;;;;;;8.88;3.70;;;;;;;9.68;100.00;102418.44;4751829;30;20116;-67
2024/02/03 12:11:54;;;;;;;7.55;3.70;;;;;;;9.68;100.00;102423.88;4751810;30;20060;-67
2024/02/03 12:14:42;;;;;;;9.38;3.95;;;;;;;9.70;100.00;102421.78;4750077;30;20181;-65
2024/02/03 12:17:30;;;;;;;8.95;3.83;;;;;;;9.72;100.00;102411.50;4739087;30;20809;-66
2024/02/03 12:20:23;;;;;;;10.20;3.97;;;;;;;9.72;100.00;102411.50;4760552;30;20172;-66
2024/02/03 12:23:11;;;;;;;8.20;3.78;;;;;;;9.72;100.00;102403.34;4751243;30;20056;-66
2024/02/03 12:26:06;;;;;;;6.80;3.85;;;;;;;9.74;100.00;102411.25;4750837;30;20198;-66
2024/02/03 12:28:54;;;;;;;11.15;4.50;;;;;;;9.77;100.00;102408.13;4737388;30;20141;-66
2024/02/03 12:31:42;;;;;;;9.63;4.80;;;;;;;9.79;100.00;102404.13;4734702;30;20155;-65
2024/02/03 12:34:31;;;;;;;7.68;4.10;;;;;;;9.77;100.00;102414.38;4749835;30;20094;-66
2024/02/03 12:37:19;;;;;;;8.07;4.25;;;;;;;9.77;100.00;102408.94;4744339;30;20052;-66
2024/02/03 12:40:09;;;;;;;7.55;4.40;;;;;;;9.78;100.00;102409.78;4751322;30;20059;-66
2024/02/03 12:42:57;;;;;;;8.05;4.10;;;;;;;9.83;100.00;102409.94;4763930;30;20630;-66
2024/02/03 12:45:46;;;;;;;10.40;3.95;;;;;;;9.82;100.00;102413.72;4750545;30;20084;-66
2024/02/03 12:48:35;;;;;;;7.60;3.90;;;;;;;9.81;100.00;102409.31;4738931;30;20103;-66
2024/02/03 12:51:26;;;;;;;7.55;3.78;;;;;;;9.81;100.00;102402.00;4751435;30;20048;-65
2024/02/03 12:54:14;;;;;;;7.97;4.00;;;;;;;9.81;100.00;102395.69;4749459;30;20045;-66
2024/02/03 12:57:03;;;;;;;8.10;3.60;;;;;;;9.79;100.00;102398.66;4737244;30;20098;-65